createdAt,value
2022-09-24T00:02:11.629Z,64.14
2022-09-24T00:04:43.970Z,64.10
2022-09-24T00:07:15.936Z,64.24
2022-09-24T00:09:48.454Z,64.15
2022-09-24T00:12:20.504Z,64.22
2022-09-24T00:14:52.549Z,64.22
2022-09-24T00:17:24.602Z,64.22
2022-09-24T00:19:56.747Z,64.29
2022-09-24T00:22:28.756Z,64.19
2022-09-24T00:25:18.542Z,64.25
2022-09-24T00:27:50.534Z,64.30
2022-09-24T00:30:23.004Z,64.32
2022-09-24T00:32:55.014Z,64.36
2022-09-24T00:35:27.215Z,64.39
2022-09-24T00:37:59.295Z,64.44
2022-09-24T00:40:33.274Z,64.41
2022-09-24T00:43:19.201Z,64.49
2022-09-24T00:45:51.835Z,64.38
2022-09-24T00:48:26.929Z,64.43
2022-09-24T00:50:59.496Z,64.38
2022-09-24T00:53:33.503Z,64.47
2022-09-24T00:56:07.983Z,64.51
2022-09-24T00:58:40.742Z,64.48
2022-09-24T01:01:12.936Z,64.47
2022-09-24T01:03:45.850Z,64.34
2022-09-24T01:06:18.034Z,64.47
2022-09-24T01:08:58.064Z,64.44
2022-09-24T01:11:50.412Z,64.55
2022-09-24T01:15:04.788Z,64.38
2022-09-24T01:17:41.973Z,64.28
2022-09-24T01:20:47.804Z,64.32
2022-09-24T01:23:37.130Z,64.26
2022-09-24T01:26:30.417Z,64.26
2022-09-24T01:29:19.197Z,64.32
2022-09-24T01:31:55.371Z,64.42
2022-09-24T01:34:32.723Z,64.52
2022-09-24T01:37:05.914Z,64.51
2022-09-24T01:39:40.293Z,64.56
2022-09-24T01:42:13.373Z,64.57
2022-09-24T01:44:46.445Z,64.69
2022-09-24T01:47:25.703Z,64.80
2022-09-24T01:49:57.959Z,64.77
2022-09-24T01:52:35.129Z,64.82
2022-09-24T01:55:10.658Z,64.76
2022-09-24T01:57:46.454Z,64.78
2022-09-24T02:00:21.201Z,64.76
2022-09-24T02:02:59.995Z,64.57
2022-09-24T02:05:35.824Z,64.72
2022-09-24T02:08:13.807Z,64.72
2022-09-24T02:10:52.038Z,64.85
2022-09-24T02:13:27.778Z,64.79
2022-09-24T02:16:03.566Z,64.79
2022-09-24T02:18:40.236Z,64.86
2022-09-24T02:21:14.959Z,64.82
2022-09-24T02:23:52.244Z,64.78
2022-09-24T02:26:24.592Z,64.98
2022-09-24T02:28:56.671Z,64.83
2022-09-24T02:31:32.976Z,64.87
2022-09-24T02:34:25.670Z,64.85
2022-09-24T02:36:59.622Z,64.85
2022-09-24T02:39:31.599Z,64.86
2022-09-24T02:42:05.643Z,64.85
2022-09-24T02:44:38.670Z,64.89
2022-09-24T02:47:10.918Z,64.91
2022-09-24T02:49:43.079Z,65.00
2022-09-24T02:52:15.338Z,64.90
2022-09-24T02:54:47.505Z,64.89
2022-09-24T02:57:21.402Z,65.04
2022-09-24T02:59:53.916Z,64.96
2022-09-24T03:02:26.031Z,65.04
2022-09-24T03:04:58.074Z,64.98
2022-09-24T03:07:30.356Z,65.08
2022-09-24T03:10:02.410Z,65.06
2022-09-24T03:12:36.168Z,65.02
2022-09-24T03:15:13.547Z,65.09
2022-09-24T03:17:45.587Z,65.10
2022-09-24T03:20:17.882Z,65.05
2022-09-24T03:22:53.061Z,65.11
2022-09-24T03:25:25.423Z,65.17
2022-09-24T03:27:57.473Z,65.15
2022-09-24T03:30:47.469Z,65.24
2022-09-24T03:33:19.508Z,65.29
2022-09-24T03:35:51.548Z,65.19
2022-09-24T03:38:23.540Z,65.26
2022-09-24T03:40:55.917Z,65.25
2022-09-24T03:43:28.289Z,65.36
2022-09-24T03:46:01.025Z,65.25
2022-09-24T03:48:33.006Z,65.33
2022-09-24T03:51:08.476Z,65.34
2022-09-24T03:53:40.871Z,65.40
2022-09-24T03:56:13.391Z,65.35
2022-09-24T03:58:47.727Z,65.44
2022-09-24T04:01:21.780Z,65.43
2022-09-24T04:03:54.389Z,65.48
2022-09-24T04:06:27.183Z,65.49
2022-09-24T04:09:00.520Z,65.50
2022-09-24T04:11:35.284Z,65.34
2022-09-24T04:14:07.407Z,65.48
2022-09-24T04:16:40.202Z,65.57
2022-09-24T04:19:12.431Z,65.53
2022-09-24T04:21:44.556Z,65.53
2022-09-24T04:24:16.625Z,65.39
2022-09-24T04:26:48.705Z,65.46
2022-09-24T04:29:20.970Z,65.54
2022-09-24T04:31:53.157Z,65.62
2022-09-24T04:34:25.257Z,65.70
2022-09-24T04:36:57.327Z,65.59
2022-09-24T04:39:29.466Z,65.55
2022-09-24T04:42:01.707Z,65.69
2022-09-24T04:44:33.732Z,65.71
2022-09-24T04:47:07.676Z,65.73
2022-09-24T04:49:39.690Z,65.89
2022-09-24T04:52:11.780Z,65.87
2022-09-24T04:54:45.396Z,65.97
2022-09-24T04:57:17.674Z,66.01
2022-09-24T04:59:49.708Z,66.00
2022-09-24T05:02:21.952Z,65.99
2022-09-24T05:04:54.019Z,65.97
2022-09-24T05:07:26.062Z,66.00
2022-09-24T05:09:58.035Z,65.99
2022-09-24T05:12:30.213Z,65.95
2022-09-24T05:15:02.330Z,66.12
2022-09-24T05:17:34.368Z,66.21
2022-09-24T05:20:07.423Z,66.14
2022-09-24T05:22:43.621Z,66.15
2022-09-24T05:25:17.039Z,66.15
2022-09-24T05:27:50.799Z,66.24
2022-09-24T05:30:24.346Z,66.16
2022-09-24T05:32:56.388Z,66.36
2022-09-24T05:35:29.214Z,66.37
2022-09-24T05:38:01.323Z,66.26
2022-09-24T05:40:48.894Z,66.44
2022-09-24T05:43:21.564Z,66.34
2022-09-24T05:45:54.648Z,66.46
2022-09-24T05:48:27.064Z,66.32
2022-09-24T05:51:01.601Z,66.50
2022-09-24T05:53:34.036Z,66.58
2022-09-24T05:56:06.371Z,66.55
2022-09-24T05:58:38.389Z,66.49
2022-09-24T06:01:10.685Z,66.87
2022-09-24T06:03:42.696Z,66.72
2022-09-24T06:06:14.834Z,66.53
2022-09-24T06:08:46.940Z,66.84
2022-09-24T06:11:19.693Z,66.71
2022-09-24T06:13:52.575Z,66.81
2022-09-24T06:16:24.665Z,67.03
2022-09-24T06:18:56.846Z,67.05
2022-09-24T06:21:29.222Z,67.30
2022-09-24T06:24:01.340Z,67.34
2022-09-24T06:26:34.301Z,67.38
2022-09-24T06:29:07.210Z,67.31
2022-09-24T06:31:39.346Z,67.34
2022-09-24T06:34:11.565Z,67.61
2022-09-24T06:36:43.635Z,67.51
2022-09-24T06:39:15.641Z,67.49
2022-09-24T06:41:50.515Z,67.33
2022-09-24T06:44:22.831Z,67.66
2022-09-24T06:46:55.096Z,67.60
2022-09-24T06:49:32.976Z,67.49
2022-09-24T06:52:06.408Z,67.45
2022-09-24T06:54:38.925Z,67.51
2022-09-24T06:57:11.391Z,67.46
2022-09-24T06:59:43.445Z,67.56
2022-09-24T07:02:15.586Z,67.58
2022-09-24T07:04:47.954Z,67.08
2022-09-24T07:07:33.132Z,66.69
2022-09-24T07:10:04.928Z,67.18
2022-09-24T07:12:37.929Z,66.93
2022-09-24T07:15:12.273Z,67.10
2022-09-24T07:17:44.241Z,67.20
2022-09-24T07:20:16.345Z,67.12
2022-09-24T07:22:48.327Z,67.23
2022-09-24T07:25:20.680Z,67.01
2022-09-24T07:27:52.674Z,66.98
2022-09-24T07:30:24.819Z,66.78
2022-09-24T07:32:59.072Z,66.70
2022-09-24T07:35:31.660Z,66.91
2022-09-24T07:38:05.571Z,66.95
2022-09-24T07:40:37.803Z,67.04
2022-09-24T07:43:14.226Z,67.05
2022-09-24T07:45:46.865Z,67.12
2022-09-24T07:48:19.262Z,67.05
2022-09-24T07:50:51.425Z,67.23
2022-09-24T07:53:24.329Z,67.21
2022-09-24T07:55:59.687Z,67.21
2022-09-24T07:58:32.085Z,67.16
2022-09-24T08:01:04.511Z,67.18
2022-09-24T08:03:36.722Z,67.16
2022-09-24T08:06:09.331Z,67.03
2022-09-24T08:08:41.736Z,66.95
2022-09-24T08:11:14.641Z,66.96
2022-09-24T08:13:47.115Z,66.87
2022-09-24T08:16:21.390Z,66.73
2022-09-24T08:18:53.408Z,66.75
2022-09-24T08:21:25.568Z,66.78
2022-09-24T08:23:57.549Z,66.84
2022-09-24T08:26:29.628Z,66.61
2022-09-24T08:29:01.646Z,66.57
2022-09-24T08:31:35.014Z,66.53
2022-09-24T08:34:07.169Z,66.36
2022-09-24T08:36:42.756Z,66.14
2022-09-24T08:39:15.747Z,65.67
2022-09-24T08:41:56.170Z,65.26
2022-09-24T08:44:50.786Z,65.26
2022-09-24T08:47:35.538Z,65.13
2022-09-24T08:50:15.508Z,65.14
2022-09-24T08:52:59.225Z,64.76
2022-09-24T08:55:37.579Z,64.96
2022-09-24T08:58:31.642Z,64.97
2022-09-24T09:01:12.978Z,64.78
2022-09-24T09:03:50.518Z,64.64
2022-09-24T09:06:49.217Z,64.45
2022-09-24T09:09:24.414Z,64.19
2022-09-24T09:12:03.264Z,64.41
2022-09-24T09:14:42.893Z,63.97
2022-09-24T09:17:28.110Z,63.97
2022-09-24T09:20:01.789Z,63.42
2022-09-24T09:22:38.851Z,63.71
2022-09-24T09:25:21.297Z,63.64
2022-09-24T09:28:01.548Z,62.90
2022-09-24T09:30:43.792Z,62.87
2022-09-24T09:33:28.452Z,62.78
2022-09-24T09:36:10.097Z,62.71
2022-09-24T09:38:55.344Z,62.37
2022-09-24T09:41:37.652Z,62.27
2022-09-24T09:44:23.715Z,62.09
2022-09-24T09:47:02.432Z,62.13
2022-09-24T09:49:39.647Z,61.98
2022-09-24T09:52:17.320Z,61.92
2022-09-24T09:54:49.823Z,61.67
2022-09-24T09:57:26.022Z,61.55
2022-09-24T09:59:58.446Z,60.93
2022-09-24T10:02:35.445Z,61.19
2022-09-24T10:05:26.332Z,61.17
2022-09-24T10:07:59.558Z,60.93
2022-09-24T10:10:31.936Z,61.20
2022-09-24T10:13:15.335Z,60.85
2022-09-24T10:15:54.766Z,60.80
2022-09-24T10:18:32.975Z,60.30
2022-09-24T10:21:12.087Z,60.29
2022-09-24T10:23:46.420Z,59.88
2022-09-24T10:26:19.056Z,59.83
2022-09-24T10:29:10.813Z,59.67
2022-09-24T10:31:45.866Z,59.34
2022-09-24T10:34:26.818Z,59.30
2022-09-24T10:37:10.212Z,59.26
2022-09-24T10:39:43.395Z,59.39
2022-09-24T10:42:26.684Z,59.18
2022-09-24T10:45:02.205Z,59.16
2022-09-24T10:47:44.544Z,58.70
2022-09-24T10:50:28.754Z,58.39
2022-09-24T10:53:08.602Z,58.40
2022-09-24T10:55:54.264Z,58.19
2022-09-24T10:58:47.746Z,57.60
2022-09-24T11:01:28.274Z,57.74
2022-09-24T11:04:41.384Z,57.42
2022-09-24T11:07:44.054Z,57.16
2022-09-24T11:10:42.278Z,57.06
2022-09-24T11:13:24.627Z,56.89
2022-09-24T11:16:16.851Z,56.60
2022-09-24T11:18:57.748Z,56.58
2022-09-24T11:21:41.789Z,56.35
2022-09-24T11:24:38.914Z,56.06
2022-09-24T11:27:31.007Z,55.89
2022-09-24T11:30:13.281Z,55.49
2022-09-24T11:33:15.668Z,55.74
2022-09-24T11:36:04.713Z,55.70
2022-09-24T11:38:56.110Z,55.35
2022-09-24T11:41:43.728Z,54.93
2022-09-24T11:44:31.414Z,55.14
2022-09-24T11:47:17.428Z,55.01
2022-09-24T11:50:06.290Z,54.91
2022-09-24T11:52:44.832Z,54.58
2022-09-24T11:55:21.008Z,54.63
2022-09-24T11:58:01.136Z,54.68
2022-09-24T12:00:40.715Z,54.57
2022-09-24T12:03:25.205Z,54.62
2022-09-24T12:06:03.298Z,54.43
2022-09-24T12:08:42.636Z,54.49
2022-09-24T12:11:20.953Z,54.32
2022-09-24T12:13:57.594Z,54.36
2022-09-24T12:16:34.318Z,54.29
2022-09-24T12:19:15.770Z,54.11
2022-09-24T12:21:51.849Z,53.78
2022-09-24T12:24:31.377Z,53.13
2022-09-24T12:27:08.561Z,52.90
2022-09-24T12:30:09.374Z,53.00
2022-09-24T12:32:57.222Z,53.04
2022-09-24T12:35:47.481Z,53.11
2022-09-24T12:38:26.368Z,52.58
2022-09-24T12:41:26.887Z,52.37
2022-09-24T12:44:07.117Z,52.22
2022-09-24T12:46:44.594Z,52.25
2022-09-24T12:49:30.451Z,52.13
2022-09-24T12:52:05.927Z,52.13
2022-09-24T12:54:39.669Z,51.92
2022-09-24T12:57:21.291Z,51.91
2022-09-24T12:59:58.840Z,52.04
2022-09-24T13:02:33.423Z,51.89
2022-09-24T13:05:28.329Z,51.74
2022-09-24T13:08:01.222Z,51.73
2022-09-24T13:10:36.709Z,51.69
2022-09-24T13:13:26.830Z,51.59
2022-09-24T13:16:05.662Z,51.37
2022-09-24T13:18:39.011Z,51.31
2022-09-24T13:21:20.244Z,51.42
2022-09-24T13:23:52.973Z,51.08
2022-09-24T13:26:36.003Z,51.05
2022-09-24T13:29:23.843Z,50.93
2022-09-24T13:32:03.981Z,51.04
2022-09-24T13:34:37.325Z,50.86
2022-09-24T13:37:21.670Z,50.66
2022-09-24T13:40:01.247Z,50.52
2022-09-24T13:42:38.970Z,50.49
2022-09-24T13:45:16.674Z,50.43
2022-09-24T13:47:52.325Z,50.41
2022-09-24T13:50:28.974Z,50.35
2022-09-24T13:53:06.590Z,50.41
2022-09-24T13:55:46.037Z,50.33
2022-09-24T13:58:31.492Z,50.32
2022-09-24T14:01:12.493Z,50.17
2022-09-24T14:03:52.706Z,50.13
2022-09-24T14:06:35.776Z,50.10
2022-09-24T14:09:17.817Z,50.10
2022-09-24T14:11:54.373Z,50.10
2022-09-24T14:14:29.458Z,50.29
2022-09-24T14:17:14.950Z,50.12
2022-09-24T14:19:47.142Z,50.18
2022-09-24T14:22:24.105Z,50.15
2022-09-24T14:25:00.582Z,50.22
2022-09-24T14:27:36.586Z,50.32
2022-09-24T14:30:19.459Z,50.37
2022-09-24T14:32:56.597Z,50.19
2022-09-24T14:35:33.096Z,50.28
2022-09-24T14:38:09.681Z,50.07
2022-09-24T14:40:47.423Z,50.01
2022-09-24T14:43:23.969Z,50.11
2022-09-24T14:46:07.414Z,50.10
2022-09-24T14:48:41.178Z,49.86
2022-09-24T14:51:27.620Z,50.00
2022-09-24T14:54:04.394Z,49.72
2022-09-24T14:56:37.247Z,49.86
2022-09-24T14:59:18.367Z,49.81
2022-09-24T15:01:51.090Z,49.91
2022-09-24T15:04:31.935Z,49.91
2022-09-24T15:07:04.311Z,49.97
2022-09-24T15:09:36.506Z,50.14
2022-09-24T15:12:18.833Z,50.15
2022-09-24T15:15:02.752Z,50.17
2022-09-24T15:17:36.508Z,50.24
2022-09-24T15:20:13.795Z,50.24
2022-09-24T15:22:47.603Z,50.25
2022-09-24T15:25:19.856Z,50.32
2022-09-24T15:27:54.662Z,50.31
2022-09-24T15:30:26.715Z,50.28
2022-09-24T15:32:59.191Z,50.30
2022-09-24T15:35:31.247Z,50.37
2022-09-24T15:38:03.222Z,50.53
2022-09-24T15:40:36.741Z,50.59
2022-09-24T15:43:20.359Z,50.47
2022-09-24T15:45:53.029Z,50.67
2022-09-24T15:48:25.088Z,50.66
2022-09-24T15:50:57.302Z,50.90
2022-09-24T15:53:30.421Z,50.97
2022-09-24T15:56:04.574Z,51.16
2022-09-24T15:58:36.629Z,51.13
2022-09-24T16:01:09.023Z,51.06
2022-09-24T16:03:41.132Z,51.27
2022-09-24T16:06:14.333Z,51.34
2022-09-24T16:08:46.371Z,51.49
2022-09-24T16:11:18.384Z,51.56
2022-09-24T16:13:52.279Z,51.59
2022-09-24T16:16:24.383Z,51.76
2022-09-24T16:18:57.056Z,51.84
2022-09-24T16:21:29.185Z,51.89
2022-09-24T16:24:01.517Z,51.91
2022-09-24T16:26:34.607Z,52.07
2022-09-24T16:29:10.101Z,52.20
2022-09-24T16:31:42.211Z,52.29
2022-09-24T16:34:14.559Z,52.34
2022-09-24T16:36:46.806Z,52.42
2022-09-24T16:39:19.542Z,52.52
2022-09-24T16:41:52.242Z,52.59
2022-09-24T16:44:24.539Z,52.77
2022-09-24T16:46:56.672Z,52.92
2022-09-24T16:49:28.773Z,52.97
2022-09-24T16:52:02.081Z,53.20
2022-09-24T16:54:34.062Z,53.25
2022-09-24T16:57:06.873Z,53.39
2022-09-24T16:59:38.906Z,53.52
2022-09-24T17:02:13.417Z,53.67
2022-09-24T17:04:45.447Z,53.66
2022-09-24T17:07:17.469Z,53.86
2022-09-24T17:10:07.454Z,53.84
2022-09-24T17:12:39.748Z,53.97
2022-09-24T17:15:14.817Z,54.02
2022-09-24T17:17:50.256Z,54.10
2022-09-24T17:20:22.854Z,54.24
2022-09-24T17:22:56.487Z,54.37
2022-09-24T17:25:28.728Z,54.45
2022-09-24T17:28:02.207Z,54.63
2022-09-24T17:30:34.231Z,54.72
2022-09-24T17:33:19.716Z,54.82
2022-09-24T17:36:00.697Z,54.97
2022-09-24T17:38:34.338Z,55.10
2022-09-24T17:41:08.419Z,55.20
2022-09-24T17:43:42.249Z,55.34
2022-09-24T17:46:15.897Z,55.39
2022-09-24T17:48:50.862Z,55.44
2022-09-24T17:51:22.876Z,55.58
2022-09-24T17:53:56.559Z,55.77
2022-09-24T17:56:32.097Z,55.71
2022-09-24T17:59:04.244Z,55.71
2022-09-24T18:01:37.990Z,55.68
2022-09-24T18:04:13.471Z,55.87
2022-09-24T18:06:47.326Z,55.75
2022-09-24T18:09:20.128Z,55.91
2022-09-24T18:11:53.605Z,56.05
2022-09-24T18:14:26.468Z,56.00
2022-09-24T18:16:59.985Z,55.59
2022-09-24T18:19:32.106Z,55.77
2022-09-24T18:22:04.733Z,55.95
2022-09-24T18:24:36.958Z,56.12
2022-09-24T18:27:08.992Z,56.16
2022-09-24T18:29:40.944Z,56.15
2022-09-24T18:32:13.940Z,56.17
2022-09-24T18:34:46.288Z,56.22
2022-09-24T18:37:18.349Z,56.30
2022-09-24T18:39:50.375Z,56.29
2022-09-24T18:42:22.393Z,56.43
2022-09-24T18:44:54.435Z,56.44
2022-09-24T18:47:26.527Z,56.50
2022-09-24T18:49:58.543Z,56.69
2022-09-24T18:52:30.533Z,56.66
2022-09-24T18:55:02.714Z,56.65
2022-09-24T18:57:35.353Z,56.75
2022-09-24T19:00:29.834Z,56.89
2022-09-24T19:03:01.921Z,56.99
2022-09-24T19:05:35.097Z,57.08
2022-09-24T19:08:07.117Z,57.26
2022-09-24T19:10:39.128Z,57.23
2022-09-24T19:13:11.332Z,57.45
2022-09-24T19:15:43.914Z,57.43
2022-09-24T19:18:18.446Z,57.66
2022-09-24T19:20:50.505Z,57.65
2022-09-24T19:23:22.539Z,57.72
2022-09-24T19:26:00.699Z,57.84
2022-09-24T19:28:33.278Z,57.86
2022-09-24T19:31:07.277Z,57.93
2022-09-24T19:33:40.749Z,57.92
2022-09-24T19:36:13.318Z,57.98
2022-09-24T19:38:45.986Z,58.05
2022-09-24T19:41:23.682Z,58.04
2022-09-24T19:43:57.909Z,58.07
2022-09-24T19:46:31.397Z,58.22
2022-09-24T19:49:03.518Z,58.31
2022-09-24T19:51:36.996Z,58.24
2022-09-24T19:54:11.319Z,58.35
2022-09-24T19:56:43.635Z,58.25
2022-09-24T19:59:16.505Z,58.53
2022-09-24T20:01:48.715Z,58.61
2022-09-24T20:04:21.472Z,58.51
2022-09-24T20:06:54.378Z,58.64
2022-09-24T20:09:26.543Z,58.63
2022-09-24T20:11:58.594Z,58.78
2022-09-24T20:14:33.677Z,58.86
2022-09-24T20:17:07.227Z,58.75
2022-09-24T20:19:39.450Z,58.83
2022-09-24T20:22:16.594Z,58.85
2022-09-24T20:24:50.642Z,58.88
2022-09-24T20:27:40.234Z,59.08
2022-09-24T20:30:13.118Z,59.18
2022-09-24T20:32:45.546Z,59.13
2022-09-24T20:35:17.904Z,59.03
2022-09-24T20:37:50.534Z,59.23
2022-09-24T20:40:22.705Z,59.26
2022-09-24T20:42:54.799Z,59.20
2022-09-24T20:45:26.886Z,59.32
2022-09-24T20:47:58.937Z,59.29
2022-09-24T20:50:32.175Z,59.34
2022-09-24T20:53:04.189Z,59.30
2022-09-24T20:55:36.331Z,59.36
2022-09-24T20:58:10.281Z,59.35
2022-09-24T21:00:54.473Z,59.46
2022-09-24T21:03:43.247Z,59.45
2022-09-24T21:06:16.872Z,59.46
2022-09-24T21:08:49.366Z,59.56
2022-09-24T21:11:23.077Z,59.47
2022-09-24T21:13:57.200Z,59.61
2022-09-24T21:16:31.609Z,59.71
2022-09-24T21:19:08.162Z,59.71
2022-09-24T21:21:41.273Z,59.93
2022-09-24T21:24:16.574Z,59.87
2022-09-24T21:26:49.185Z,60.06
2022-09-24T21:29:22.288Z,60.05
2022-09-24T21:31:54.284Z,60.11
2022-09-24T21:34:28.141Z,60.17
2022-09-24T21:37:00.156Z,60.20
2022-09-24T21:39:32.230Z,60.22
2022-09-24T21:42:05.417Z,60.34
2022-09-24T21:44:37.493Z,60.14
2022-09-24T21:47:09.590Z,60.36
2022-09-24T21:49:41.892Z,60.29
2022-09-24T21:52:13.913Z,60.45
2022-09-24T21:54:45.947Z,60.46
2022-09-24T21:57:17.995Z,60.49
2022-09-24T22:00:04.403Z,60.26
2022-09-24T22:02:41.102Z,60.20
2022-09-24T22:05:20.002Z,60.37
2022-09-24T22:07:52.171Z,60.34
2022-09-24T22:10:24.241Z,60.33
2022-09-24T22:12:56.586Z,60.39
2022-09-24T22:15:28.609Z,60.31
2022-09-24T22:18:01.028Z,60.36
2022-09-24T22:20:33.180Z,60.36
2022-09-24T22:23:05.200Z,60.24
2022-09-24T22:25:37.200Z,60.47
2022-09-24T22:28:09.232Z,60.53
2022-09-24T22:30:45.402Z,60.50
2022-09-24T22:33:37.491Z,60.39
2022-09-24T22:36:09.895Z,60.62
2022-09-24T22:38:42.256Z,60.72
2022-09-24T22:41:14.496Z,60.72
2022-09-24T22:43:46.548Z,60.55
2022-09-24T22:46:19.565Z,60.66
2022-09-24T22:48:51.661Z,60.60
2022-09-24T22:51:24.512Z,60.68
2022-09-24T22:53:57.397Z,60.86
2022-09-24T22:56:30.155Z,60.68
2022-09-24T22:59:03.497Z,61.08
2022-09-24T23:01:40.669Z,60.82
2022-09-24T23:04:15.319Z,61.08
2022-09-24T23:06:47.519Z,60.98
2022-09-24T23:09:20.732Z,60.99
2022-09-24T23:11:53.508Z,61.01
2022-09-24T23:14:25.503Z,61.02
2022-09-24T23:16:58.787Z,61.10
2022-09-24T23:19:48.810Z,61.02
2022-09-24T23:22:22.414Z,61.02
2022-09-24T23:24:54.466Z,61.21
2022-09-24T23:27:26.619Z,60.95
2022-09-24T23:29:59.546Z,60.86
2022-09-24T23:32:32.213Z,61.02
2022-09-24T23:35:04.290Z,61.13
2022-09-24T23:37:36.424Z,61.13
2022-09-24T23:40:11.207Z,61.02
2022-09-24T23:42:41.744Z,61.04
2022-09-24T23:45:14.119Z,61.08
2022-09-24T23:47:46.127Z,61.13
2022-09-24T23:50:18.356Z,61.08
2022-09-24T23:52:50.346Z,61.10
2022-09-24T23:55:22.349Z,61.18
2022-09-24T23:57:54.432Z,61.16
